Suches, Georgia
Current Conditions -  °F | °C
As of 3:53 AM on Monday 24 Nov 2014 (Local Time) from KGVL Reporting Station
Overcast Overcast  
Wind Chill: 56°   Ceiling: 2200
Heat Index: 56°   Visibility: 10mi
Dew Point: 54°   Wind: 6mph
Humidity: 93%   Direction: 180°S
Pressure: 29.77"   Gusts: NA
Location:  34.72°N, 84.05°W
Report Text: KGVL 240853Z AUTO 18005KT 10SM FEW010 FEW014 OVC022 13/12 A2977 RMK AO2 SLP074 T01330122 58000
Loading
Personal Weather Stations






























Interactive Weather Map New forecast layout! Learn more

10-Day Weather Forecast

Advertisements
Track Severe Weather on mobile